Time;durP1;ratioP1;P1;durP2;ratioP2;P2;SDS_P1;SDS_P2;PMS_P1;PMS_P2;Temp;Humidity;BMP_temperature;BMP_pressure;BME280_temperature;BME280_humidity;BME280_pressure;Samples;Min_cycle;Max_cycle;Signal;HPM_P1;HPM_P2
2022/03/10 00:00:10;;;;;;;10.37;7.60;;;;;;;-1.61;100.00;97074.75;5010132;28;101823;-63
2022/03/10 00:02:43;;;;;;;11.47;8.03;;;;;;;-1.68;100.00;97071.16;5008362;28;105416;-63
2022/03/10 00:05:11;;;;;;;10.10;6.87;;;;;;;-1.53;100.00;97072.16;5007734;28;105387;-63
2022/03/10 00:07:38;;;;;;;9.20;7.20;;;;;;;-1.69;100.00;97068.69;5008705;28;102156;-63
2022/03/10 00:10:08;;;;;;;9.30;7.30;;;;;;;-1.63;100.00;97071.50;5008592;28;105413;-63
2022/03/10 00:12:36;;;;;;;9.33;6.97;;;;;;;-1.44;100.00;97063.38;5011396;28;105663;-63
2022/03/10 00:15:08;;;;;;;9.93;7.50;;;;;;;-1.58;100.00;97069.19;5008119;28;105095;-63
2022/03/10 00:17:35;;;;;;;14.20;8.30;;;;;;;-1.54;100.00;97075.72;5007919;28;105608;-63
2022/03/10 00:20:03;;;;;;;10.50;7.90;;;;;;;-1.48;100.00;97071.69;5042133;27;102208;-63
2022/03/10 00:22:31;;;;;;;8.93;7.17;;;;;;;-1.56;100.00;97071.66;5041984;27;105476;-63
2022/03/10 00:24:58;;;;;;;12.70;8.37;;;;;;;-1.44;100.00;97075.59;5007795;28;105009;-63
2022/03/10 00:27:25;;;;;;;10.73;8.10;;;;;;;-1.73;100.00;97075.19;5041728;27;102201;-63
2022/03/10 00:29:52;;;;;;;9.13;7.27;;;;;;;-1.93;100.00;97079.00;5008255;28;105361;-63
2022/03/10 00:32:21;;;;;;;10.50;7.90;;;;;;;-1.95;100.00;97079.19;5007118;28;105515;-63
2022/03/10 00:34:49;;;;;;;10.50;7.50;;;;;;;-1.62;100.00;97087.94;5011771;28;102085;-63
2022/03/10 00:37:16;;;;;;;10.47;8.00;;;;;;;-1.55;100.00;97079.31;5007521;28;105660;-63
2022/03/10 00:39:44;;;;;;;11.30;7.50;;;;;;;-1.75;100.00;97075.34;5008011;28;102316;-63
2022/03/10 00:42:11;;;;;;;11.10;7.70;;;;;;;-1.81;100.00;97075.97;5008270;28;105182;-63
2022/03/10 00:44:40;;;;;;;10.33;7.03;;;;;;;-2.04;100.00;97074.06;5041406;27;105691;-63
2022/03/10 00:47:07;;;;;;;11.63;7.80;;;;;;;-2.03;100.00;97073.13;5011376;28;102132;-63
2022/03/10 00:49:36;;;;;;;11.20;8.03;;;;;;;-1.94;100.00;97073.00;5011617;28;104339;-63
2022/03/10 00:52:04;;;;;;;11.67;7.57;;;;;;;-2.02;100.00;97072.94;5012602;28;102873;-63
2022/03/10 00:54:31;;;;;;;10.87;8.60;;;;;;;-1.84;100.00;97078.91;5011519;28;102038;-63
2022/03/10 00:56:58;;;;;;;10.73;7.50;;;;;;;-1.62;100.00;97074.91;5015872;28;102502;-63
2022/03/10 00:59:26;;;;;;;11.40;8.53;;;;;;;-1.74;100.00;97081.38;5011228;28;101877;-63
2022/03/10 01:01:53;;;;;;;9.90;7.80;;;;;;;-1.83;100.00;97075.31;5045263;27;105509;-63
2022/03/10 01:04:21;;;;;;;11.20;7.47;;;;;;;-1.86;100.00;97075.63;5010760;28;106107;-63
2022/03/10 01:06:50;;;;;;;10.07;7.40;;;;;;;-2.16;100.00;97078.75;5011138;28;101865;-63
2022/03/10 01:09:18;;;;;;;9.80;7.77;;;;;;;-2.14;100.00;97079.41;5011231;28;105086;-63
2022/03/10 01:11:46;;;;;;;8.90;7.17;;;;;;;-1.96;100.00;97068.91;5010695;28;106093;-63
2022/03/10 01:14:13;;;;;;;9.20;7.07;;;;;;;-1.94;100.00;97072.19;5010469;28;101808;-63
2022/03/10 01:16:41;;;;;;;10.07;7.07;;;;;;;-2.05;100.00;97075.88;5045062;27;105405;-63
2022/03/10 01:19:10;;;;;;;8.73;6.80;;;;;;;-2.09;100.00;97071.94;5015155;28;102898;-63
2022/03/10 01:21:37;;;;;;;9.50;7.03;;;;;;;-1.91;100.00;97074.47;5010957;28;105371;-63
2022/03/10 01:24:07;;;;;;;7.40;6.60;;;;;;;-1.90;100.00;97071.72;5044328;27;105586;-63
2022/03/10 01:26:34;;;;;;;9.93;7.30;;;;;;;-1.90;100.00;97063.91;5011049;28;102022;-63
2022/03/10 01:29:01;;;;;;;7.73;6.23;;;;;;;-2.02;100.00;97065.13;5010799;28;104582;-63
2022/03/10 01:31:29;;;;;;;8.70;7.23;;;;;;;-2.05;100.00;97067.25;5010192;28;105635;-63
2022/03/10 01:33:57;;;;;;;8.77;6.83;;;;;;;-1.90;100.00;97074.34;5044528;27;101937;-63
2022/03/10 01:36:24;;;;;;;8.53;6.90;;;;;;;-1.87;100.00;97076.59;5010929;28;105571;-63
2022/03/10 01:38:52;;;;;;;8.87;7.13;;;;;;;-1.93;100.00;97079.00;5013566;28;105604;-63
2022/03/10 01:41:21;;;;;;;8.97;7.30;;;;;;;-1.99;100.00;97075.25;5010804;28;105448;-63
2022/03/10 01:43:58;;;;;;;11.07;7.13;;;;;;;-2.14;100.00;97082.03;5009991;28;105790;-63
2022/03/10 01:46:26;;;;;;;8.80;6.90;;;;;;;-2.00;100.00;97084.06;5010818;28;101851;-63
2022/03/10 01:48:53;;;;;;;8.93;7.07;;;;;;;-1.82;100.00;97076.13;5010368;28;105280;-63
2022/03/10 01:51:21;;;;;;;10.50;7.10;;;;;;;-1.95;100.00;97079.19;5043885;27;105639;-63
2022/03/10 01:53:50;;;;;;;12.33;7.90;;;;;;;-1.80;100.00;97080.22;5011986;28;101832;-63
2022/03/10 01:56:18;;;;;;;10.60;7.07;;;;;;;-1.85;100.00;97081.66;5009561;28;105711;-63
2022/03/10 01:58:48;;;;;;;10.97;7.20;;;;;;;-1.92;100.00;97086.69;5009685;28;105717;-63
2022/03/10 02:01:16;;;;;;;9.03;6.83;;;;;;;-2.01;100.00;97085.03;5013768;28;101852;-63
2022/03/10 02:03:44;;;;;;;8.93;7.27;;;;;;;-2.24;100.00;97090.94;5009980;28;105939;-63
2022/03/10 02:06:12;;;;;;;9.33;6.83;;;;;;;-2.51;100.00;97086.69;5010023;28;102005;-63
2022/03/10 02:11:24;;;;;;;9.80;6.90;;;;;;;-2.68;100.00;97091.94;5009510;28;105703;-63
2022/03/10 02:13:53;;;;;;;9.47;6.83;;;;;;;-2.61;100.00;97088.59;5043693;27;101835;-63
2022/03/10 02:19:06;;;;;;;9.50;6.73;;;;;;;-2.74;100.00;97090.75;5009606;28;104247;-63
2022/03/10 02:21:33;;;;;;;10.53;7.30;;;;;;;-2.68;100.00;97082.34;5010054;28;102442;-63
2022/03/10 02:24:02;;;;;;;10.47;6.70;;;;;;;-2.65;100.00;97081.22;5012923;28;105525;-63
2022/03/10 02:26:30;;;;;;;9.50;7.13;;;;;;;-2.72;100.00;97086.22;5010000;28;101925;-63
2022/03/10 02:28:57;;;;;;;10.50;6.67;;;;;;;-2.68;100.00;97082.34;5010039;28;105905;-63
2022/03/10 02:31:24;;;;;;;9.03;6.93;;;;;;;-2.73;100.00;97084.56;5008950;28;105796;-63
2022/03/10 02:33:52;;;;;;;9.50;6.67;;;;;;;-2.76;100.00;97082.28;5009952;28;102088;-63
2022/03/10 02:36:20;;;;;;;9.30;7.50;;;;;;;-2.68;100.00;97077.13;5043796;27;106127;-63
2022/03/10 02:38:47;;;;;;;10.23;7.40;;;;;;;-2.77;100.00;97080.66;5009207;28;105567;-63
2022/03/10 02:41:17;;;;;;;10.00;7.23;;;;;;;-2.77;100.00;97080.66;5009738;28;101931;-63
2022/03/10 02:43:44;;;;;;;9.73;6.83;;;;;;;-2.69;100.00;97080.72;5026701;28;105657;-63
2022/03/10 02:46:12;;;;;;;10.10;7.33;;;;;;;-2.67;100.00;97077.97;5012573;28;105607;-63
2022/03/10 02:48:38;;;;;;;10.73;7.47;;;;;;;-2.51;100.00;97089.28;5009562;28;105990;-63
2022/03/10 02:51:05;;;;;;;11.23;7.80;;;;;;;-2.67;100.00;97085.78;5009272;28;105236;-63
2022/03/10 02:53:33;;;;;;;11.37;7.77;;;;;;;-2.75;100.00;97088.28;5009764;28;101941;-63
2022/03/10 02:56:01;;;;;;;9.77;7.70;;;;;;;-2.59;100.00;97091.00;5009527;28;105862;-63
2022/03/10 02:58:29;;;;;;;9.27;6.90;;;;;;;-2.72;100.00;97086.22;5008954;28;105593;-63
2022/03/10 03:00:57;;;;;;;10.47;7.03;;;;;;;-2.82;100.00;97092.47;5009445;28;102184;-63
2022/03/10 03:03:24;;;;;;;9.77;7.33;;;;;;;-2.70;100.00;97093.88;5009642;28;105787;-63
2022/03/10 03:05:52;;;;;;;9.93;7.60;;;;;;;-2.88;100.00;97096.53;5008870;28;105655;-63
2022/03/10 03:08:20;;;;;;;8.93;6.77;;;;;;;-3.02;100.00;97094.44;5012525;28;102283;-63
2022/03/10 03:10:47;;;;;;;9.73;7.23;;;;;;;-3.11;100.00;97090.13;5008656;28;105600;-63
2022/03/10 03:13:15;;;;;;;11.53;7.37;;;;;;;-3.06;100.00;97093.09;5009463;28;101867;-63
2022/03/10 03:15:44;;;;;;;9.60;6.97;;;;;;;-2.99;100.00;97099.34;5043103;27;105428;-63
2022/03/10 03:18:12;;;;;;;8.90;7.07;;;;;;;-2.95;100.00;97095.47;5008514;28;105016;-63
2022/03/10 03:20:39;;;;;;;9.07;7.37;;;;;;;-3.11;100.00;97094.53;5042922;27;102157;-63
2022/03/10 03:23:06;;;;;;;12.87;8.07;;;;;;;-2.88;100.00;97106.09;5009491;28;105505;-63
2022/03/10 03:25:33;;;;;;;11.17;7.53;;;;;;;-2.77;100.00;97105.84;5008376;28;105611;-63
2022/03/10 03:28:01;;;;;;;9.83;7.33;;;;;;;-3.09;100.00;97103.81;5009118;28;101938;-63
2022/03/10 03:30:28;;;;;;;10.43;7.50;;;;;;;-2.93;100.00;97111.75;5045983;27;104189;-63
2022/03/10 03:32:56;;;;;;;10.90;7.97;;;;;;;-2.89;100.00;97112.28;5008549;28;101985;-63
2022/03/10 03:35:25;;;;;;;10.73;7.40;;;;;;;-2.80;100.00;97119.19;5009129;28;103943;-63
2022/03/10 03:37:52;;;;;;;13.63;8.00;;;;;;;-2.89;100.00;97120.88;5008339;28;106021;-63
2022/03/10 03:40:20;;;;;;;11.77;7.50;;;;;;;-2.78;100.00;97119.84;5009007;28;101900;-63
2022/03/10 03:42:47;;;;;;;11.13;7.07;;;;;;;-2.76;100.00;97120.50;5008726;28;106326;-63
2022/03/10 03:45:15;;;;;;;8.70;7.30;;;;;;;-2.89;100.00;97126.09;5008247;28;105772;-63
2022/03/10 03:47:42;;;;;;;11.73;7.60;;;;;;;-3.13;100.00;97122.44;5008719;28;101912;-63
2022/03/10 03:50:13;;;;;;;12.00;7.50;;;;;;;-3.11;100.00;97126.53;5028522;28;104849;-63
2022/03/10 03:52:41;;;;;;;12.27;7.47;;;;;;;-2.99;100.00;97134.94;5010006;28;101801;-63
2022/03/10 03:55:10;;;;;;;11.63;7.53;;;;;;;-3.08;100.00;97128.03;5008548;28;105577;-63
2022/03/10 03:57:37;;;;;;;13.53;7.83;;;;;;;-3.13;100.00;97135.44;5008111;28;105414;-63
2022/03/10 04:00:06;;;;;;;10.07;7.43;;;;;;;-3.26;100.00;97141.03;5008772;28;102082;-63
2022/03/10 04:02:36;;;;;;;11.20;8.10;;;;;;;-3.12;100.00;97139.72;5007027;28;102143;-63
2022/03/10 04:05:05;;;;;;;11.50;7.73;;;;;;;-3.12;100.00;97142.31;5009241;28;103034;-63
2022/03/10 04:07:34;;;;;;;10.07;7.80;;;;;;;-3.08;100.00;97141.84;5042278;27;101867;-63
2022/03/10 04:10:02;;;;;;;11.03;8.37;;;;;;;-3.01;100.00;97152.50;5008205;28;104096;-63
2022/03/10 04:12:29;;;;;;;11.27;8.33;;;;;;;-2.92;100.00;97149.81;5011472;28;106062;-63
2022/03/10 04:14:56;;;;;;;11.30;8.03;;;;;;;-3.04;100.00;97150.19;5008389;28;105201;-63
2022/03/10 04:17:24;;;;;;;10.37;7.63;;;;;;;-3.01;100.00;97142.09;5007946;28;106695;-63
2022/03/10 04:19:51;;;;;;;16.60;9.43;;;;;;;-2.90;100.00;97150.47;5042501;27;101955;-63
2022/03/10 04:22:18;;;;;;;10.93;8.67;;;;;;;-2.80;100.00;97155.63;5011654;28;105675;-63
2022/03/10 04:24:47;;;;;;;15.07;8.47;;;;;;;-2.93;100.00;97157.75;5011231;28;105907;-63
2022/03/10 04:27:15;;;;;;;11.90;7.83;;;;;;;-3.02;100.00;97172.47;5013480;28;102139;-63
2022/03/10 04:29:42;;;;;;;10.53;7.97;;;;;;;-2.82;100.00;97162.75;5011895;28;105571;-63
2022/03/10 04:32:10;;;;;;;11.93;8.93;;;;;;;-2.77;100.00;97166.56;5010921;28;105644;-63
2022/03/10 04:34:37;;;;;;;10.60;7.97;;;;;;;-2.78;100.00;97175.31;5015059;28;101925;-63
2022/03/10 04:37:04;;;;;;;10.30;8.17;;;;;;;-2.81;100.00;97173.00;5012673;28;102804;-63
2022/03/10 04:39:32;;;;;;;13.10;8.37;;;;;;;-2.92;100.00;97165.44;5011764;28;101943;-63
2022/03/10 04:42:01;;;;;;;11.07;7.63;;;;;;;-2.92;100.00;97173.22;5011708;28;104298;-63
2022/03/10 04:44:28;;;;;;;12.27;8.03;;;;;;;-2.92;100.00;97177.59;5010957;28;105489;-63
2022/03/10 04:46:56;;;;;;;9.67;7.63;;;;;;;-3.38;100.00;97172.59;5011530;28;101883;-63
2022/03/10 04:49:23;;;;;;;11.37;7.87;;;;;;;-3.36;100.00;97168.88;5011486;28;105498;-63
2022/03/10 04:51:50;;;;;;;10.57;8.30;;;;;;;-3.56;100.00;97182.94;5010734;28;105328;-63
2022/03/10 04:54:18;;;;;;;11.60;8.13;;;;;;;-3.59;100.00;97182.41;5011280;28;101932;-63
2022/03/10 04:56:45;;;;;;;11.87;7.83;;;;;;;-3.43;100.00;97180.84;5014378;28;105249;-63
2022/03/10 04:59:13;;;;;;;9.70;7.40;;;;;;;-3.37;100.00;97185.44;5011567;28;101908;-63
2022/03/10 05:01:41;;;;;;;11.60;8.57;;;;;;;-3.55;100.00;97173.38;5045040;27;105523;-63
2022/03/10 05:04:08;;;;;;;10.83;7.57;;;;;;;-3.46;100.00;97168.09;5044525;27;106687;-63
2022/03/10 05:06:36;;;;;;;11.77;8.47;;;;;;;-3.42;100.00;97174.66;5010932;28;101940;-63
2022/03/10 05:09:03;;;;;;;11.17;8.13;;;;;;;-3.49;100.00;97170.97;5011072;28;105536;-63
2022/03/10 05:11:31;;;;;;;11.73;8.33;;;;;;;-3.33;100.00;97171.16;5010656;28;105382;-63
2022/03/10 05:13:58;;;;;;;14.23;8.33;;;;;;;-3.55;100.00;97173.38;5011305;28;101923;-63
2022/03/10 05:16:27;;;;;;;13.03;8.40;;;;;;;-3.46;100.00;97175.91;5011062;28;105569;-63
2022/03/10 05:18:54;;;;;;;12.60;8.43;;;;;;;-3.47;100.00;97171.69;5013762;28;105685;-63
2022/03/10 05:21:22;;;;;;;11.23;8.03;;;;;;;-3.49;100.00;97168.38;5012357;28;102794;-63
2022/03/10 05:23:52;;;;;;;11.97;8.23;;;;;;;-3.44;100.00;97173.97;5010617;28;105728;-63
2022/03/10 05:26:19;;;;;;;14.37;7.77;;;;;;;-3.48;100.00;97171.81;5010960;28;101878;-63
2022/03/10 05:28:47;;;;;;;15.87;8.27;;;;;;;-3.38;100.00;97170.78;5010900;28;105276;-63
2022/03/10 05:31:14;;;;;;;10.83;7.83;;;;;;;-3.68;100.00;97167.66;5009931;28;105497;-63
2022/03/10 05:33:43;;;;;;;12.37;8.20;;;;;;;-3.68;100.00;97176.28;5010780;28;102032;-63
2022/03/10 05:36:11;;;;;;;13.43;8.03;;;;;;;-3.62;100.00;97178.31;5010896;28;104885;-63
2022/03/10 05:38:38;;;;;;;14.37;8.93;;;;;;;-3.83;100.00;97171.72;5009954;28;105582;-63
2022/03/10 05:41:06;;;;;;;11.80;7.63;;;;;;;-3.61;100.00;97169.53;5048027;27;101780;-63
2022/03/10 05:43:33;;;;;;;15.57;9.03;;;;;;;-3.59;100.00;97170.25;5009926;28;105993;-63
2022/03/10 05:46:00;;;;;;;10.73;8.77;;;;;;;-3.66;100.00;97182.16;5010446;28;101927;-63
2022/03/10 05:48:28;;;;;;;12.73;8.80;;;;;;;-3.61;100.00;97179.94;5011854;28;102834;-63
2022/03/10 05:50:57;;;;;;;12.53;8.97;;;;;;;-3.41;100.00;97178.06;5009993;28;105861;-63
2022/03/10 05:53:24;;;;;;;12.43;8.23;;;;;;;-3.44;100.00;97170.56;5010703;28;101886;-63
2022/03/10 05:55:52;;;;;;;11.70;7.60;;;;;;;-3.35;100.00;97174.88;5010991;28;105619;-63
2022/03/10 05:58:23;;;;;;;10.53;7.73;;;;;;;-3.42;100.00;97173.84;5010190;28;105597;-63
2022/03/10 06:00:50;;;;;;;12.37;8.17;;;;;;;-3.57;100.00;97175.28;5014286;28;101896;-63
2022/03/10 06:03:19;;;;;;;12.60;7.93;;;;;;;-3.49;100.00;97170.19;5025142;28;105883;-64
2022/03/10 06:05:46;;;;;;;12.63;8.20;;;;;;;-3.29;100.00;97179.53;5030652;28;101882;-63
2022/03/10 06:08:26;;;;;;;17.30;10.90;;;;;;;-3.28;100.00;97171.56;5030824;28;104068;-63
2022/03/10 06:10:56;;;;;;;19.20;10.70;;;;;;;-3.13;100.00;97174.47;5029232;28;105555;-63
2022/03/10 06:13:23;;;;;;;18.33;11.33;;;;;;;-2.98;100.00;97181.63;5029531;28;101865;-63
2022/03/10 06:15:51;;;;;;;14.77;9.27;;;;;;;-2.97;100.00;97182.44;5029522;28;105696;-63
2022/03/10 06:18:21;;;;;;;13.40;8.80;;;;;;;-2.85;100.00;97179.47;5029613;28;105841;-63
2022/03/10 06:20:49;;;;;;;13.40;8.50;;;;;;;-2.75;100.00;97177.63;5030380;28;101955;-63
2022/03/10 06:23:16;;;;;;;12.97;9.50;;;;;;;-2.64;100.00;97177.38;5033011;28;105612;-63
2022/03/10 06:25:45;;;;;;;16.20;9.17;;;;;;;-2.38;100.00;97180.84;5030241;28;101892;-63
2022/03/10 06:28:14;;;;;;;12.63;9.00;;;;;;;-2.26;100.00;97186.63;5030720;28;104091;-63
2022/03/10 06:30:42;;;;;;;14.80;9.27;;;;;;;-2.23;100.00;97179.34;5029818;28;105482;-63
2022/03/10 06:33:10;;;;;;;18.67;10.57;;;;;;;-2.27;100.00;97190.19;5031574;27;101845;-63
2022/03/10 06:35:37;;;;;;;11.40;9.33;;;;;;;-2.00;100.00;97188.28;5063407;27;105290;-63
2022/03/10 06:38:44;;;;;;;13.87;9.37;;;;;;;-1.64;100.00;97188.97;5029519;28;104944;-64
2022/03/10 06:41:41;;;;;;;14.47;10.07;;;;;;;-1.57;100.00;97189.97;5030299;28;102141;-63
2022/03/10 06:44:09;;;;;;;14.37;9.33;;;;;;;-1.47;100.00;97191.50;5028490;27;104171;-64
2022/03/10 06:46:36;;;;;;;22.37;10.60;;;;;;;-1.12;100.00;97191.31;5032781;28;104391;-64
2022/03/10 06:49:32;;;;;;;16.60;10.43;;;;;;;-0.99;100.00;97196.06;5028801;28;105628;-64
2022/03/10 06:51:59;;;;;;;13.90;9.20;;;;;;;-0.88;100.00;97193.16;5008382;28;105950;-64
2022/03/10 06:54:26;;;;;;;14.83;10.20;;;;;;;-0.80;100.00;97196.59;5009810;28;101977;-64
2022/03/10 06:56:55;;;;;;;16.37;10.60;;;;;;;-0.52;100.00;97197.94;5010351;28;102582;-64
2022/03/10 07:02:46;;;;;;;23.50;13.53;;;;;;;-0.14;100.00;97194.69;5008575;28;101989;-64
2022/03/10 07:05:13;;;;;;;20.30;13.07;;;;;;;0.06;100.00;97196.78;5008546;28;104955;-64
2022/03/10 07:07:43;;;;;;;17.67;10.90;;;;;;;0.11;100.00;97197.09;5008388;28;105506;-64
2022/03/10 07:10:12;;;;;;;72.90;29.47;;;;;;;0.16;100.00;97193.97;5012500;28;101862;-64
2022/03/10 07:12:43;;;;;;;23.27;13.53;;;;;;;0.16;100.00;97191.34;5007927;28;105886;-64
2022/03/10 07:15:14;;;;;;;56.93;30.20;;;;;;;0.43;100.00;97199.63;5025266;28;101890;-64
2022/03/10 07:17:43;;;;;;;33.50;18.73;;;;;;;0.68;100.00;97184.66;5025142;28;105202;-64
2022/03/10 07:20:13;;;;;;;15.83;10.80;;;;;;;0.82;100.00;97182.16;5007564;28;105862;-64
2022/03/10 07:22:41;;;;;;;14.80;9.90;;;;;;;0.85;100.00;97189.69;5008055;28;101958;-64
2022/03/10 07:25:10;;;;;;;15.97;10.03;;;;;;;1.26;100.00;97185.03;5009054;28;105681;-64
2022/03/10 07:27:37;;;;;;;11.67;9.70;;;;;;;1.48;100.00;97189.47;5007506;28;105602;-64
2022/03/10 07:30:08;;;;;;;15.40;9.50;;;;;;;1.50;100.00;97180.44;5022560;28;102374;-64
2022/03/10 07:32:36;;;;;;;11.30;9.33;;;;;;;1.51;100.00;97181.25;5031807;28;105392;-64
2022/03/10 07:35:04;;;;;;;11.50;8.77;;;;;;;1.62;100.00;97179.03;5029223;28;102138;-64
2022/03/10 07:37:31;;;;;;;14.27;8.57;;;;;;;1.78;100.00;97184.16;5029083;28;105512;-64
2022/03/10 07:39:58;;;;;;;10.67;8.47;;;;;;;1.88;100.00;97181.28;5028215;28;105902;-64
2022/03/10 07:42:26;;;;;;;12.57;8.57;;;;;;;2.32;100.00;97176.91;5062650;27;101842;-64
2022/03/10 07:44:56;;;;;;;14.43;8.50;;;;;;;2.47;100.00;97177.75;5028750;28;104162;-64
2022/03/10 07:47:25;;;;;;;13.27;8.23;;;;;;;2.65;100.00;97181.63;5028347;28;104281;-64
2022/03/10 07:49:52;;;;;;;12.83;8.53;;;;;;;2.69;100.00;97180.25;5028908;28;101882;-64
2022/03/10 07:52:20;;;;;;;13.13;8.63;;;;;;;2.79;100.00;97172.91;5028823;28;105274;-64
2022/03/10 07:54:47;;;;;;;16.90;9.70;;;;;;;2.90;100.00;97176.91;5031533;28;102397;-64
2022/03/10 07:57:15;;;;;;;9.93;8.60;;;;;;;3.01;100.00;97166.72;5028595;28;105107;-64
2022/03/10 07:59:42;;;;;;;10.97;7.13;;;;;;;3.34;100.00;97169.72;5028091;28;105583;-64
2022/03/10 08:02:09;;;;;;;8.87;6.87;;;;;;;3.51;100.00;97169.31;5028714;28;101873;-64
2022/03/10 08:04:39;;;;;;;7.57;6.83;;;;;;;3.56;100.00;97174.81;5028464;28;105391;-64
2022/03/10 08:07:06;;;;;;;8.13;5.93;;;;;;;3.51;100.00;97165.88;5027924;28;105521;-64
2022/03/10 08:09:34;;;;;;;9.43;6.33;;;;;;;3.82;100.00;97161.09;5028472;28;102027;-64
2022/03/10 08:12:02;;;;;;;8.87;6.00;;;;;;;4.02;100.00;97165.50;5028473;28;105496;-64
2022/03/10 08:14:30;;;;;;;7.80;6.20;;;;;;;4.36;100.00;97154.22;5031069;28;105638;-64
2022/03/10 08:16:57;;;;;;;6.63;5.70;;;;;;;4.24;100.00;97148.66;5028495;28;105613;-64
2022/03/10 08:19:24;;;;;;;8.13;6.17;;;;;;;4.39;100.00;97157.28;5027725;28;105418;-64
2022/03/10 08:21:53;;;;;;;11.10;8.03;;;;;;;4.47;100.00;97151.84;5028414;28;101776;-64
2022/03/10 08:24:20;;;;;;;8.57;7.63;;;;;;;4.09;100.00;97149.78;5028436;28;105135;-68
2022/03/10 08:26:49;;;;;;;12.73;8.50;;;;;;;4.40;100.00;97147.53;5025648;28;105467;-63
2022/03/10 08:29:20;;;;;;;13.13;7.70;;;;;;;4.46;100.00;97141.50;5010707;28;102212;-64
2022/03/10 08:31:51;;;;;;;13.77;8.03;;;;;;;4.42;100.00;97135.00;5018166;27;105419;-64
2022/03/10 08:34:18;;;;;;;11.23;8.97;;;;;;;4.39;100.00;97136.22;5023007;28;105169;-63
2022/03/10 08:36:46;;;;;;;19.43;8.23;;;;;;;4.42;100.00;97141.06;5028464;28;101942;-64
2022/03/10 08:39:15;;;;;;;12.30;7.10;;;;;;;4.67;100.00;97136.16;5028479;27;103060;-65
2022/03/10 08:41:42;;;;;;;8.50;7.10;;;;;;;4.57;100.00;97127.78;5027730;28;101811;-63
2022/03/10 08:44:10;;;;;;;10.50;7.43;;;;;;;4.44;100.00;97133.00;5029004;27;103266;-64
2022/03/10 08:46:38;;;;;;;8.63;7.67;;;;;;;4.83;100.00;97128.75;5061060;27;105608;-63
2022/03/10 08:49:06;;;;;;;9.23;7.60;;;;;;;5.15;100.00;97125.41;5027436;28;102015;-64
2022/03/10 08:51:34;;;;;;;8.63;7.23;;;;;;;4.94;100.00;97127.34;5029573;27;102539;-63
2022/03/10 08:54:02;;;;;;;9.67;6.93;;;;;;;4.94;100.00;97119.44;5029199;28;101991;-63
2022/03/10 08:56:31;;;;;;;9.83;7.57;;;;;;;5.16;100.00;97123.56;5027735;28;101853;-63
2022/03/10 08:58:58;;;;;;;10.33;7.90;;;;;;;5.44;100.00;97121.59;5030390;28;105497;-64
2022/03/10 09:01:25;;;;;;;9.47;7.50;;;;;;;5.27;100.00;97118.53;5028698;27;101874;-64
2022/03/10 09:03:52;;;;;;;8.40;7.10;;;;;;;5.28;100.00;97124.59;5028973;27;102604;-64
2022/03/10 09:06:20;;;;;;;9.23;7.50;;;;;;;5.67;100.00;97122.06;5028183;28;105676;-64
2022/03/10 09:08:48;;;;;;;9.10;7.57;;;;;;;5.49;100.00;97121.81;5030775;28;101882;-64
2022/03/10 09:11:18;;;;;;;9.00;7.57;;;;;;;5.72;100.00;97122.28;5032422;28;102548;-64
2022/03/10 09:13:51;;;;;;;8.43;7.43;;;;;;;5.86;100.00;97123.91;5030373;28;104186;-63
2022/03/10 09:16:20;;;;;;;10.67;7.20;;;;;;;5.87;100.00;97122.91;5031014;28;101844;-63
2022/03/10 09:18:49;;;;;;;10.43;7.40;;;;;;;6.27;100.00;97125.31;5030781;28;105909;-64
2022/03/10 09:21:17;;;;;;;9.27;7.10;;;;;;;6.22;100.00;97126.94;5033729;28;105340;-63
2022/03/10 09:23:46;;;;;;;10.27;7.07;;;;;;;6.00;100.00;97122.91;5030870;28;102858;-64
2022/03/10 09:26:13;;;;;;;9.77;7.50;;;;;;;5.91;100.00;97121.47;5030266;28;104385;-63
2022/03/10 09:28:42;;;;;;;8.63;6.57;;;;;;;6.13;100.00;97112.31;5030607;28;101881;-63
2022/03/10 09:31:12;;;;;;;9.13;6.83;;;;;;;6.68;97.36;97112.63;5031203;27;102029;-64
2022/03/10 09:33:40;;;;;;;10.03;6.53;;;;;;;7.37;94.92;97102.13;5030766;28;105680;-64
2022/03/10 09:36:07;;;;;;;7.13;6.23;;;;;;;7.80;92.05;97105.72;5031073;28;103133;-65
2022/03/10 09:38:36;;;;;;;8.03;6.47;;;;;;;7.99;86.54;97096.78;5030850;28;105732;-64
2022/03/10 09:41:12;;;;;;;8.60;6.53;;;;;;;7.93;81.51;97095.00;5030139;28;105896;-64
2022/03/10 09:43:41;;;;;;;8.73;6.60;;;;;;;7.78;79.40;97094.50;5020883;28;101816;-64
2022/03/10 09:46:10;;;;;;;8.03;6.50;;;;;;;7.91;78.87;97092.56;5030191;28;106026;-64
2022/03/10 09:48:51;;;;;;;8.73;6.33;;;;;;;7.86;78.33;97095.03;5030662;28;101839;-64
2022/03/10 09:51:23;;;;;;;12.67;7.00;;;;;;;8.28;77.94;97093.50;5030619;28;105670;-64
2022/03/10 09:53:51;;;;;;;9.07;5.43;;;;;;;8.45;72.30;97084.75;5030122;28;104920;-64
2022/03/10 09:56:21;;;;;;;8.23;6.20;;;;;;;8.27;75.44;97091.88;5030408;28;101972;-64
2022/03/10 09:59:14;;;;;;;9.83;6.23;;;;;;;8.69;69.58;97093.66;5030638;28;105103;-64
2022/03/10 10:01:43;;;;;;;8.93;6.37;;;;;;;8.52;68.73;97092.63;5029889;28;105826;-64
2022/03/10 10:04:11;;;;;;;8.97;5.93;;;;;;;8.97;69.08;97085.97;5033821;28;101843;-64
2022/03/10 10:07:03;;;;;;;7.53;5.40;;;;;;;9.35;63.91;97083.84;5029856;28;105382;-64
2022/03/10 10:09:50;;;;;;;9.93;5.90;;;;;;;9.96;64.03;97089.66;5030091;28;102225;-64
2022/03/10 10:12:22;;;;;;;9.60;5.53;;;;;;;9.33;58.92;97085.94;5030626;28;105620;-64
2022/03/10 10:14:50;;;;;;;6.17;5.57;;;;;;;9.67;62.39;97085.22;5020256;28;105673;-64
2022/03/10 10:17:28;;;;;;;7.90;5.90;;;;;;;9.76;59.75;97089.16;5029438;27;101948;-64
2022/03/10 10:19:57;;;;;;;6.47;5.67;;;;;;;9.76;60.40;97089.97;5030604;28;104397;-64
2022/03/10 10:22:26;;;;;;;6.30;5.40;;;;;;;9.71;60.93;97073.91;5029877;28;104520;-64
2022/03/10 10:24:55;;;;;;;7.83;5.67;;;;;;;10.45;58.61;97073.28;5030024;28;102055;-64
2022/03/10 10:27:25;;;;;;;7.80;5.60;;;;;;;10.78;55.33;97074.28;5032890;28;105493;-64
2022/03/10 10:29:55;;;;;;;6.17;5.47;;;;;;;11.33;53.26;97069.25;5029847;28;101928;-64
2022/03/10 10:32:31;;;;;;;6.97;5.27;;;;;;;11.04;51.76;97062.28;5050703;27;105136;-64
2022/03/10 10:35:00;;;;;;;5.60;5.00;;;;;;;11.49;49.99;97071.13;5021110;28;105926;-64
2022/03/10 10:37:49;;;;;;;4.17;3.77;;;;;;;11.84;46.01;97067.25;5031571;27;101815;-64
2022/03/10 10:40:20;;;;;;;4.27;3.80;;;;;;;12.06;44.26;97062.84;5029719;28;105639;-64
2022/03/10 10:42:52;;;;;;;7.00;4.30;;;;;;;12.32;45.52;97066.69;5029537;28;105843;-64
2022/03/10 10:45:30;;;;;;;4.77;4.10;;;;;;;12.38;43.76;97055.03;5029922;28;101988;-64
2022/03/10 10:48:08;;;;;;;4.53;4.07;;;;;;;12.44;42.71;97056.72;5031656;27;102848;-64
2022/03/10 10:50:36;;;;;;;5.93;4.27;;;;;;;12.72;41.77;97053.91;5046296;27;105557;-64
2022/03/10 10:53:04;;;;;;;4.80;4.30;;;;;;;12.80;42.58;97043.59;5009757;28;106752;-64
2022/03/10 10:55:35;;;;;;;6.30;4.03;;;;;;;12.90;41.87;97045.59;5030401;27;103229;-64
2022/03/10 10:58:12;;;;;;;4.97;4.40;;;;;;;12.98;41.32;97053.19;5029870;28;101820;-64
2022/03/10 11:00:46;;;;;;;5.80;4.73;;;;;;;13.19;41.08;97036.34;5028518;28;105574;-63
2022/03/10 11:03:23;;;;;;;5.03;4.17;;;;;;;13.38;40.70;97038.44;5028764;28;104594;-64
2022/03/10 11:05:50;;;;;;;6.53;4.37;;;;;;;13.54;39.15;97036.72;5029575;28;102175;-64
2022/03/10 11:08:20;;;;;;;7.77;4.20;;;;;;;13.50;39.03;97035.59;5029266;28;105416;-64
2022/03/10 11:10:48;;;;;;;4.70;4.27;;;;;;;13.35;38.60;97028.25;5030553;27;103128;-64
2022/03/10 11:13:16;;;;;;;5.93;4.80;;;;;;;13.74;38.72;97031.56;5034152;27;102013;-64
2022/03/10 11:15:45;;;;;;;5.27;4.37;;;;;;;13.79;38.07;97026.25;5028748;28;105861;-64
2022/03/10 11:18:22;;;;;;;4.87;4.37;;;;;;;13.78;38.04;97027.28;5029033;28;101981;-64
2022/03/10 11:20:56;;;;;;;4.97;4.47;;;;;;;13.64;40.15;97026.13;5029402;28;105618;-64
2022/03/10 11:23:33;;;;;;;5.47;4.87;;;;;;;13.81;39.62;97016.91;5028485;28;105509;-64
2022/03/10 11:26:08;;;;;;;4.90;4.50;;;;;;;13.48;39.45;97016.34;5029459;28;101918;-64
2022/03/10 11:28:43;;;;;;;4.40;4.00;;;;;;;13.47;39.29;97014.75;5028518;28;105333;-64
2022/03/10 11:31:12;;;;;;;5.47;4.30;;;;;;;13.66;38.60;97013.28;5028432;28;105414;-64
2022/03/10 11:33:41;;;;;;;4.63;4.23;;;;;;;14.06;38.46;97008.28;5030422;28;101917;-64